sensor_id;sensor_type;location;lat;lon;timestamp;temperature;humidity
43225;DHT22;28834;48.720;9.208;2022-07-06T00:01:26;18.00;89.70
43225;DHT22;28834;48.720;9.208;2022-07-06T00:03:52;18.00;88.30
43225;DHT22;28834;48.720;9.208;2022-07-06T00:06:17;18.00;89.10
43225;DHT22;28834;48.720;9.208;2022-07-06T00:08:43;17.90;90.10
43225;DHT22;28834;48.720;9.208;2022-07-06T00:11:10;17.90;89.70
43225;DHT22;28834;48.720;9.208;2022-07-06T00:13:36;17.90;90.80
43225;DHT22;28834;48.720;9.208;2022-07-06T00:16:02;17.70;90.60
43225;DHT22;28834;48.720;9.208;2022-07-06T00:18:28;17.70;91.00
43225;DHT22;28834;48.720;9.208;2022-07-06T00:20:53;17.70;91.10
43225;DHT22;28834;48.720;9.208;2022-07-06T00:23:19;17.60;90.80
43225;DHT22;28834;48.720;9.208;2022-07-06T00:25:45;17.60;91.50
43225;DHT22;28834;48.720;9.208;2022-07-06T00:28:10;17.60;91.80
43225;DHT22;28834;48.720;9.208;2022-07-06T00:30:36;17.60;91.00
43225;DHT22;28834;48.720;9.208;2022-07-06T00:33:02;17.60;92.00
43225;DHT22;28834;48.720;9.208;2022-07-06T00:35:27;17.60;91.30
43225;DHT22;28834;48.720;9.208;2022-07-06T00:37:53;17.50;91.70
43225;DHT22;28834;48.720;9.208;2022-07-06T00:40:18;17.40;92.00
43225;DHT22;28834;48.720;9.208;2022-07-06T00:42:46;17.40;92.50
43225;DHT22;28834;48.720;9.208;2022-07-06T00:45:13;17.30;93.30
43225;DHT22;28834;48.720;9.208;2022-07-06T00:47:39;17.30;93.00
43225;DHT22;28834;48.720;9.208;2022-07-06T00:50:06;17.20;92.60
43225;DHT22;28834;48.720;9.208;2022-07-06T00:52:49;17.10;93.10
43225;DHT22;28834;48.720;9.208;2022-07-06T00:55:18;17.00;93.50
43225;DHT22;28834;48.720;9.208;2022-07-06T00:57:44;17.00;93.60
43225;DHT22;28834;48.720;9.208;2022-07-06T01:00:12;17.00;93.60
43225;DHT22;28834;48.720;9.208;2022-07-06T01:02:39;17.00;94.20
43225;DHT22;28834;48.720;9.208;2022-07-06T01:05:06;16.90;94.70
43225;DHT22;28834;48.720;9.208;2022-07-06T01:07:32;16.90;94.10
43225;DHT22;28834;48.720;9.208;2022-07-06T01:09:58;16.80;94.90
43225;DHT22;28834;48.720;9.208;2022-07-06T01:12:24;16.80;95.20
43225;DHT22;28834;48.720;9.208;2022-07-06T01:14:50;16.80;95.60
43225;DHT22;28834;48.720;9.208;2022-07-06T01:17:17;16.70;95.50
43225;DHT22;28834;48.720;9.208;2022-07-06T01:19:43;16.60;95.20
43225;DHT22;28834;48.720;9.208;2022-07-06T01:22:09;16.60;95.50
43225;DHT22;28834;48.720;9.208;2022-07-06T01:24:36;16.60;95.10
43225;DHT22;28834;48.720;9.208;2022-07-06T01:27:03;16.60;95.90
43225;DHT22;28834;48.720;9.208;2022-07-06T01:29:29;16.50;96.30
43225;DHT22;28834;48.720;9.208;2022-07-06T01:31:55;16.50;96.30
43225;DHT22;28834;48.720;9.208;2022-07-06T01:34:21;16.50;96.40
43225;DHT22;28834;48.720;9.208;2022-07-06T01:36:46;16.50;95.60
43225;DHT22;28834;48.720;9.208;2022-07-06T01:39:12;16.40;96.10
43225;DHT22;28834;48.720;9.208;2022-07-06T01:41:38;16.50;96.10
43225;DHT22;28834;48.720;9.208;2022-07-06T01:44:04;16.50;96.40
43225;DHT22;28834;48.720;9.208;2022-07-06T01:46:30;16.40;95.90
43225;DHT22;28834;48.720;9.208;2022-07-06T01:48:56;16.50;95.20
43225;DHT22;28834;48.720;9.208;2022-07-06T01:51:22;16.40;96.40
43225;DHT22;28834;48.720;9.208;2022-07-06T01:53:48;16.40;94.80
43225;DHT22;28834;48.720;9.208;2022-07-06T01:56:14;16.40;95.90
43225;DHT22;28834;48.720;9.208;2022-07-06T01:58:40;16.40;95.60
43225;DHT22;28834;48.720;9.208;2022-07-06T02:01:10;16.40;94.70
43225;DHT22;28834;48.720;9.208;2022-07-06T02:03:36;16.40;94.80
43225;DHT22;28834;48.720;9.208;2022-07-06T02:06:03;16.40;95.00
43225;DHT22;28834;48.720;9.208;2022-07-06T02:08:28;16.40;94.60
43225;DHT22;28834;48.720;9.208;2022-07-06T02:10:54;16.30;94.80
43225;DHT22;28834;48.720;9.208;2022-07-06T02:13:20;16.30;94.00
43225;DHT22;28834;48.720;9.208;2022-07-06T02:15:45;16.30;94.60
43225;DHT22;28834;48.720;9.208;2022-07-06T02:18:11;16.30;94.70
43225;DHT22;28834;48.720;9.208;2022-07-06T02:20:36;16.30;95.20
43225;DHT22;28834;48.720;9.208;2022-07-06T02:23:02;16.20;96.20
43225;DHT22;28834;48.720;9.208;2022-07-06T02:25:28;16.10;96.40
43225;DHT22;28834;48.720;9.208;2022-07-06T02:27:53;16.00;97.30
43225;DHT22;28834;48.720;9.208;2022-07-06T02:30:19;15.90;97.40
43225;DHT22;28834;48.720;9.208;2022-07-06T02:32:44;15.80;98.10
43225;DHT22;28834;48.720;9.208;2022-07-06T02:35:10;15.80;98.00
43225;DHT22;28834;48.720;9.208;2022-07-06T02:37:36;15.60;98.30
43225;DHT22;28834;48.720;9.208;2022-07-06T02:40:02;15.60;97.80
43225;DHT22;28834;48.720;9.208;2022-07-06T02:42:28;15.50;99.10
43225;DHT22;28834;48.720;9.208;2022-07-06T02:44:53;15.50;99.00
43225;DHT22;28834;48.720;9.208;2022-07-06T02:47:19;15.40;99.10
43225;DHT22;28834;48.720;9.208;2022-07-06T02:49:45;15.40;99.00
43225;DHT22;28834;48.720;9.208;2022-07-06T02:52:10;15.40;98.80
43225;DHT22;28834;48.720;9.208;2022-07-06T02:54:36;15.30;99.30
43225;DHT22;28834;48.720;9.208;2022-07-06T02:57:01;15.30;99.10
43225;DHT22;28834;48.720;9.208;2022-07-06T02:59:27;15.30;98.80
43225;DHT22;28834;48.720;9.208;2022-07-06T03:01:52;15.30;99.50
43225;DHT22;28834;48.720;9.208;2022-07-06T03:04:18;15.30;99.70
43225;DHT22;28834;48.720;9.208;2022-07-06T03:06:44;15.30;99.30
43225;DHT22;28834;48.720;9.208;2022-07-06T03:09:09;15.40;98.40
43225;DHT22;28834;48.720;9.208;2022-07-06T03:11:35;15.30;98.70
43225;DHT22;28834;48.720;9.208;2022-07-06T03:14:04;15.40;98.70
43225;DHT22;28834;48.720;9.208;2022-07-06T03:16:30;15.40;98.90
43225;DHT22;28834;48.720;9.208;2022-07-06T03:18:56;15.40;99.00
43225;DHT22;28834;48.720;9.208;2022-07-06T03:21:22;15.40;99.10
43225;DHT22;28834;48.720;9.208;2022-07-06T03:23:48;15.40;99.30
43225;DHT22;28834;48.720;9.208;2022-07-06T03:26:13;15.40;98.70
43225;DHT22;28834;48.720;9.208;2022-07-06T03:28:39;15.30;99.00
43225;DHT22;28834;48.720;9.208;2022-07-06T03:31:05;15.30;99.90
43225;DHT22;28834;48.720;9.208;2022-07-06T03:33:30;15.30;99.40
43225;DHT22;28834;48.720;9.208;2022-07-06T03:35:56;15.20;99.90
43225;DHT22;28834;48.720;9.208;2022-07-06T03:38:21;15.20;99.80
43225;DHT22;28834;48.720;9.208;2022-07-06T03:40:47;15.20;99.90
43225;DHT22;28834;48.720;9.208;2022-07-06T03:43:12;15.20;99.90
43225;DHT22;28834;48.720;9.208;2022-07-06T03:45:38;15.20;99.90
43225;DHT22;28834;48.720;9.208;2022-07-06T03:48:04;15.20;99.80
43225;DHT22;28834;48.720;9.208;2022-07-06T03:50:29;15.10;99.90
43225;DHT22;28834;48.720;9.208;2022-07-06T03:52:55;15.10;99.90
43225;DHT22;28834;48.720;9.208;2022-07-06T03:55:21;15.10;99.90
43225;DHT22;28834;48.720;9.208;2022-07-06T03:57:47;15.10;99.90
43225;DHT22;28834;48.720;9.208;2022-07-06T04:00:12;15.10;99.90
43225;DHT22;28834;48.720;9.208;2022-07-06T04:02:38;15.00;99.90
43225;DHT22;28834;48.720;9.208;2022-07-06T04:05:04;15.00;99.90
43225;DHT22;28834;48.720;9.208;2022-07-06T04:07:30;15.00;99.90
43225;DHT22;28834;48.720;9.208;2022-07-06T04:09:55;15.00;99.90
43225;DHT22;28834;48.720;9.208;2022-07-06T04:12:21;15.00;99.90
43225;DHT22;28834;48.720;9.208;2022-07-06T04:14:46;15.00;99.90
43225;DHT22;28834;48.720;9.208;2022-07-06T04:17:12;15.00;99.90
43225;DHT22;28834;48.720;9.208;2022-07-06T04:20:16;14.90;99.90
43225;DHT22;28834;48.720;9.208;2022-07-06T04:22:42;14.90;99.90
43225;DHT22;28834;48.720;9.208;2022-07-06T04:25:08;14.90;99.90
43225;DHT22;28834;48.720;9.208;2022-07-06T04:27:34;14.90;99.90
43225;DHT22;28834;48.720;9.208;2022-07-06T04:30:00;15.00;99.90
43225;DHT22;28834;48.720;9.208;2022-07-06T04:32:25;14.90;99.90
43225;DHT22;28834;48.720;9.208;2022-07-06T04:34:51;15.00;99.90
43225;DHT22;28834;48.720;9.208;2022-07-06T04:37:16;15.00;99.90
43225;DHT22;28834;48.720;9.208;2022-07-06T04:39:42;15.10;99.90
43225;DHT22;28834;48.720;9.208;2022-07-06T04:42:07;15.10;99.90
43225;DHT22;28834;48.720;9.208;2022-07-06T04:44:33;15.10;99.90
43225;DHT22;28834;48.720;9.208;2022-07-06T04:46:59;15.20;99.90
43225;DHT22;28834;48.720;9.208;2022-07-06T04:49:24;15.20;99.90
43225;DHT22;28834;48.720;9.208;2022-07-06T04:51:50;15.30;99.90
43225;DHT22;28834;48.720;9.208;2022-07-06T04:54:16;15.30;99.90
43225;DHT22;28834;48.720;9.208;2022-07-06T04:56:41;15.40;99.90
43225;DHT22;28834;48.720;9.208;2022-07-06T04:59:07;15.50;99.90
43225;DHT22;28834;48.720;9.208;2022-07-06T05:01:32;15.50;99.90
43225;DHT22;28834;48.720;9.208;2022-07-06T05:03:58;15.50;99.90
43225;DHT22;28834;48.720;9.208;2022-07-06T05:06:23;15.60;99.90
43225;DHT22;28834;48.720;9.208;2022-07-06T05:08:49;15.70;99.90
43225;DHT22;28834;48.720;9.208;2022-07-06T05:11:14;15.70;99.90
43225;DHT22;28834;48.720;9.208;2022-07-06T05:13:40;15.70;99.90
43225;DHT22;28834;48.720;9.208;2022-07-06T05:16:05;15.80;99.90
43225;DHT22;28834;48.720;9.208;2022-07-06T05:18:31;15.80;99.90
43225;DHT22;28834;48.720;9.208;2022-07-06T05:20:57;15.90;99.90
43225;DHT22;28834;48.720;9.208;2022-07-06T05:23:22;15.90;99.90
43225;DHT22;28834;48.720;9.208;2022-07-06T05:25:48;15.90;99.90
43225;DHT22;28834;48.720;9.208;2022-07-06T05:28:13;16.00;99.90
43225;DHT22;28834;48.720;9.208;2022-07-06T05:30:39;16.00;99.90
43225;DHT22;28834;48.720;9.208;2022-07-06T05:33:04;16.10;99.90
43225;DHT22;28834;48.720;9.208;2022-07-06T05:35:30;16.00;99.90
43225;DHT22;28834;48.720;9.208;2022-07-06T05:37:56;16.10;99.90
43225;DHT22;28834;48.720;9.208;2022-07-06T05:40:21;16.10;99.90
43225;DHT22;28834;48.720;9.208;2022-07-06T05:42:47;16.10;99.90
43225;DHT22;28834;48.720;9.208;2022-07-06T05:45:12;16.10;99.90
43225;DHT22;28834;48.720;9.208;2022-07-06T05:47:38;16.20;99.90
43225;DHT22;28834;48.720;9.208;2022-07-06T05:50:22;16.20;99.90
43225;DHT22;28834;48.720;9.208;2022-07-06T05:53:03;16.30;99.90
43225;DHT22;28834;48.720;9.208;2022-07-06T05:55:29;16.30;99.90
43225;DHT22;28834;48.720;9.208;2022-07-06T05:57:54;16.40;99.90
43225;DHT22;28834;48.720;9.208;2022-07-06T06:00:21;16.40;99.90
43225;DHT22;28834;48.720;9.208;2022-07-06T06:02:47;16.50;99.90
43225;DHT22;28834;48.720;9.208;2022-07-06T06:05:13;16.50;99.90
43225;DHT22;28834;48.720;9.208;2022-07-06T06:07:39;16.50;99.90
43225;DHT22;28834;48.720;9.208;2022-07-06T06:10:09;16.60;99.90
43225;DHT22;28834;48.720;9.208;2022-07-06T06:12:36;16.60;99.90
43225;DHT22;28834;48.720;9.208;2022-07-06T06:15:02;16.70;99.90
43225;DHT22;28834;48.720;9.208;2022-07-06T06:17:28;16.70;99.90
43225;DHT22;28834;48.720;9.208;2022-07-06T06:19:53;16.80;99.90
43225;DHT22;28834;48.720;9.208;2022-07-06T06:22:19;16.90;99.90
43225;DHT22;28834;48.720;9.208;2022-07-06T06:24:45;16.90;99.80
43225;DHT22;28834;48.720;9.208;2022-07-06T06:27:11;17.00;99.90
43225;DHT22;28834;48.720;9.208;2022-07-06T06:29:37;17.10;99.90
43225;DHT22;28834;48.720;9.208;2022-07-06T06:32:03;17.10;99.90
43225;DHT22;28834;48.720;9.208;2022-07-06T06:34:31;17.20;99.90
43225;DHT22;28834;48.720;9.208;2022-07-06T06:36:56;17.30;99.90
43225;DHT22;28834;48.720;9.208;2022-07-06T06:39:22;17.40;99.60
43225;DHT22;28834;48.720;9.208;2022-07-06T06:41:47;17.40;99.90
43225;DHT22;28834;48.720;9.208;2022-07-06T06:44:13;17.50;99.60
43225;DHT22;28834;48.720;9.208;2022-07-06T06:46:40;17.50;98.90
43225;DHT22;28834;48.720;9.208;2022-07-06T06:49:06;17.60;98.30
43225;DHT22;28834;48.720;9.208;2022-07-06T06:51:32;17.70;98.30
43225;DHT22;28834;48.720;9.208;2022-07-06T06:53:57;17.80;98.90
43225;DHT22;28834;48.720;9.208;2022-07-06T06:56:23;17.80;97.80
43225;DHT22;28834;48.720;9.208;2022-07-06T06:58:49;17.80;98.40
43225;DHT22;28834;48.720;9.208;2022-07-06T07:01:14;17.90;99.00
43225;DHT22;28834;48.720;9.208;2022-07-06T07:03:40;18.00;98.30
43225;DHT22;28834;48.720;9.208;2022-07-06T07:06:05;18.10;97.80
43225;DHT22;28834;48.720;9.208;2022-07-06T07:08:31;18.20;97.00
43225;DHT22;28834;48.720;9.208;2022-07-06T07:10:57;18.20;96.60
43225;DHT22;28834;48.720;9.208;2022-07-06T07:13:23;18.30;96.10
43225;DHT22;28834;48.720;9.208;2022-07-06T07:15:48;18.30;97.30
43225;DHT22;28834;48.720;9.208;2022-07-06T07:18:14;18.30;97.30
43225;DHT22;28834;48.720;9.208;2022-07-06T07:20:39;18.40;97.30
43225;DHT22;28834;48.720;9.208;2022-07-06T07:23:05;18.50;96.70
43225;DHT22;28834;48.720;9.208;2022-07-06T07:25:31;18.70;96.50
43225;DHT22;28834;48.720;9.208;2022-07-06T07:27:56;18.80;95.80
43225;DHT22;28834;48.720;9.208;2022-07-06T07:30:22;19.00;95.40
43225;DHT22;28834;48.720;9.208;2022-07-06T07:32:48;19.10;95.10
43225;DHT22;28834;48.720;9.208;2022-07-06T07:35:13;19.20;95.20
43225;DHT22;28834;48.720;9.208;2022-07-06T07:37:39;19.30;94.00
43225;DHT22;28834;48.720;9.208;2022-07-06T07:40:05;19.40;95.10
43225;DHT22;28834;48.720;9.208;2022-07-06T07:42:31;19.60;94.80
43225;DHT22;28834;48.720;9.208;2022-07-06T07:44:57;19.70;92.90
43225;DHT22;28834;48.720;9.208;2022-07-06T07:47:23;19.70;93.70
43225;DHT22;28834;48.720;9.208;2022-07-06T07:49:48;19.70;92.10
43225;DHT22;28834;48.720;9.208;2022-07-06T07:52:14;19.80;93.80
43225;DHT22;28834;48.720;9.208;2022-07-06T07:54:39;19.90;92.80
43225;DHT22;28834;48.720;9.208;2022-07-06T07:57:05;20.00;93.00
43225;DHT22;28834;48.720;9.208;2022-07-06T07:59:31;20.10;93.10
43225;DHT22;28834;48.720;9.208;2022-07-06T08:01:56;20.10;92.90
43225;DHT22;28834;48.720;9.208;2022-07-06T08:04:22;20.30;93.10
43225;DHT22;28834;48.720;9.208;2022-07-06T08:06:48;20.50;91.80
43225;DHT22;28834;48.720;9.208;2022-07-06T08:09:14;20.50;91.90
43225;DHT22;28834;48.720;9.208;2022-07-06T08:11:41;20.40;91.50
43225;DHT22;28834;48.720;9.208;2022-07-06T08:14:06;20.40;91.70
43225;DHT22;28834;48.720;9.208;2022-07-06T08:16:32;20.30;91.60
43225;DHT22;28834;48.720;9.208;2022-07-06T08:18:57;20.50;90.30
43225;DHT22;28834;48.720;9.208;2022-07-06T08:21:23;20.60;91.80
43225;DHT22;28834;48.720;9.208;2022-07-06T08:23:49;20.60;90.80
43225;DHT22;28834;48.720;9.208;2022-07-06T08:26:15;20.60;90.80
43225;DHT22;28834;48.720;9.208;2022-07-06T08:28:41;20.80;90.80
43225;DHT22;28834;48.720;9.208;2022-07-06T08:31:06;21.10;90.30
43225;DHT22;28834;48.720;9.208;2022-07-06T08:33:32;21.20;91.10
43225;DHT22;28834;48.720;9.208;2022-07-06T08:35:57;21.20;90.20
43225;DHT22;28834;48.720;9.208;2022-07-06T08:38:23;21.10;87.70
43225;DHT22;28834;48.720;9.208;2022-07-06T08:40:49;21.10;90.40
43225;DHT22;28834;48.720;9.208;2022-07-06T08:43:15;21.30;88.20
43225;DHT22;28834;48.720;9.208;2022-07-06T08:45:42;21.10;86.10
43225;DHT22;28834;48.720;9.208;2022-07-06T08:48:10;21.30;87.90
43225;DHT22;28834;48.720;9.208;2022-07-06T08:50:36;21.40;90.80
43225;DHT22;28834;48.720;9.208;2022-07-06T08:53:03;21.50;89.90
43225;DHT22;28834;48.720;9.208;2022-07-06T08:55:29;21.60;88.60
43225;DHT22;28834;48.720;9.208;2022-07-06T08:57:55;21.60;86.40
43225;DHT22;28834;48.720;9.208;2022-07-06T09:00:22;21.80;89.00
43225;DHT22;28834;48.720;9.208;2022-07-06T09:02:49;21.90;86.10
43225;DHT22;28834;48.720;9.208;2022-07-06T09:05:22;21.90;89.20
43225;DHT22;28834;48.720;9.208;2022-07-06T09:07:50;21.70;89.10
43225;DHT22;28834;48.720;9.208;2022-07-06T09:10:18;21.60;87.50
43225;DHT22;28834;48.720;9.208;2022-07-06T09:12:44;21.60;87.90
43225;DHT22;28834;48.720;9.208;2022-07-06T09:15:10;21.60;86.30
43225;DHT22;28834;48.720;9.208;2022-07-06T09:17:38;21.60;85.00
43225;DHT22;28834;48.720;9.208;2022-07-06T09:20:07;21.70;87.10
43225;DHT22;28834;48.720;9.208;2022-07-06T09:22:34;21.90;86.40
43225;DHT22;28834;48.720;9.208;2022-07-06T09:25:13;21.90;86.20
43225;DHT22;28834;48.720;9.208;2022-07-06T09:27:43;22.00;85.60
43225;DHT22;28834;48.720;9.208;2022-07-06T09:30:12;22.10;84.10
43225;DHT22;28834;48.720;9.208;2022-07-06T09:32:44;22.20;87.30
43225;DHT22;28834;48.720;9.208;2022-07-06T09:35:36;22.30;88.90
43225;DHT22;28834;48.720;9.208;2022-07-06T09:40:33;22.60;85.70
43225;DHT22;28834;48.720;9.208;2022-07-06T09:43:18;22.70;84.60
43225;DHT22;28834;48.720;9.208;2022-07-06T09:45:55;22.60;82.10
43225;DHT22;28834;48.720;9.208;2022-07-06T09:48:25;22.60;85.00
43225;DHT22;28834;48.720;9.208;2022-07-06T09:50:58;22.50;85.80
43225;DHT22;28834;48.720;9.208;2022-07-06T09:53:26;22.50;86.60
43225;DHT22;28834;48.720;9.208;2022-07-06T09:55:53;22.50;85.40
43225;DHT22;28834;48.720;9.208;2022-07-06T09:58:20;22.50;85.80
43225;DHT22;28834;48.720;9.208;2022-07-06T10:00:47;22.50;86.20
43225;DHT22;28834;48.720;9.208;2022-07-06T10:03:13;22.50;85.40
43225;DHT22;28834;48.720;9.208;2022-07-06T10:05:41;22.60;81.90
43225;DHT22;28834;48.720;9.208;2022-07-06T10:08:08;22.60;83.50
43225;DHT22;28834;48.720;9.208;2022-07-06T10:10:38;22.90;86.20
43225;DHT22;28834;48.720;9.208;2022-07-06T10:13:05;23.00;83.40
43225;DHT22;28834;48.720;9.208;2022-07-06T10:15:35;23.30;83.60
43225;DHT22;28834;48.720;9.208;2022-07-06T10:18:03;23.30;82.40
43225;DHT22;28834;48.720;9.208;2022-07-06T10:20:32;23.30;82.50
43225;DHT22;28834;48.720;9.208;2022-07-06T10:23:00;23.40;81.40
43225;DHT22;28834;48.720;9.208;2022-07-06T10:25:26;23.60;83.40
43225;DHT22;28834;48.720;9.208;2022-07-06T10:27:53;23.70;83.50
43225;DHT22;28834;48.720;9.208;2022-07-06T10:30:20;23.70;79.20
43225;DHT22;28834;48.720;9.208;2022-07-06T10:32:49;23.80;82.20
43225;DHT22;28834;48.720;9.208;2022-07-06T10:35:16;23.80;83.50
43225;DHT22;28834;48.720;9.208;2022-07-06T10:37:43;23.80;82.10
43225;DHT22;28834;48.720;9.208;2022-07-06T10:40:09;23.80;81.40
43225;DHT22;28834;48.720;9.208;2022-07-06T10:43:01;23.80;83.80
43225;DHT22;28834;48.720;9.208;2022-07-06T10:53:10;24.00;80.60
43225;DHT22;28834;48.720;9.208;2022-07-06T10:55:38;24.10;78.50
43225;DHT22;28834;48.720;9.208;2022-07-06T10:58:05;24.20;79.10
43225;DHT22;28834;48.720;9.208;2022-07-06T11:00:53;24.30;81.50
43225;DHT22;28834;48.720;9.208;2022-07-06T11:03:31;24.20;81.30
43225;DHT22;28834;48.720;9.208;2022-07-06T11:05:58;24.20;80.80
43225;DHT22;28834;48.720;9.208;2022-07-06T11:09:00;24.10;80.10
43225;DHT22;28834;48.720;9.208;2022-07-06T11:14:14;23.50;81.60
43225;DHT22;28834;48.720;9.208;2022-07-06T11:16:58;23.70;79.90
43225;DHT22;28834;48.720;9.208;2022-07-06T11:19:26;24.00;82.60
43225;DHT22;28834;48.720;9.208;2022-07-06T11:24:28;24.20;82.50
43225;DHT22;28834;48.720;9.208;2022-07-06T11:26:54;24.30;81.90
43225;DHT22;28834;48.720;9.208;2022-07-06T11:29:22;24.40;82.50
43225;DHT22;28834;48.720;9.208;2022-07-06T11:31:53;24.50;80.90
43225;DHT22;28834;48.720;9.208;2022-07-06T11:34:24;24.60;83.10
43225;DHT22;28834;48.720;9.208;2022-07-06T11:36:58;24.40;79.80
43225;DHT22;28834;48.720;9.208;2022-07-06T11:39:31;23.90;82.50
43225;DHT22;28834;48.720;9.208;2022-07-06T11:41:59;23.60;82.00
43225;DHT22;28834;48.720;9.208;2022-07-06T11:44:26;23.70;82.00
43225;DHT22;28834;48.720;9.208;2022-07-06T11:46:51;23.50;81.40
43225;DHT22;28834;48.720;9.208;2022-07-06T11:49:17;23.60;82.20
43225;DHT22;28834;48.720;9.208;2022-07-06T11:51:45;23.80;82.40
43225;DHT22;28834;48.720;9.208;2022-07-06T11:54:13;23.80;82.70
43225;DHT22;28834;48.720;9.208;2022-07-06T11:56:49;23.70;82.40
43225;DHT22;28834;48.720;9.208;2022-07-06T11:59:16;23.70;86.60
43225;DHT22;28834;48.720;9.208;2022-07-06T12:01:42;23.70;82.00
43225;DHT22;28834;48.720;9.208;2022-07-06T12:04:10;23.80;82.60
43225;DHT22;28834;48.720;9.208;2022-07-06T12:06:36;23.80;83.40
43225;DHT22;28834;48.720;9.208;2022-07-06T12:09:02;23.90;81.30
43225;DHT22;28834;48.720;9.208;2022-07-06T12:11:33;24.00;83.20
43225;DHT22;28834;48.720;9.208;2022-07-06T12:14:01;24.20;86.10
43225;DHT22;28834;48.720;9.208;2022-07-06T12:16:35;24.40;82.20
43225;DHT22;28834;48.720;9.208;2022-07-06T12:19:03;24.60;81.50
43225;DHT22;28834;48.720;9.208;2022-07-06T12:21:29;24.50;81.00
43225;DHT22;28834;48.720;9.208;2022-07-06T12:23:55;24.50;82.40
43225;DHT22;28834;48.720;9.208;2022-07-06T12:26:23;24.30;83.00
43225;DHT22;28834;48.720;9.208;2022-07-06T12:29:09;24.00;81.30
43225;DHT22;28834;48.720;9.208;2022-07-06T12:31:43;23.90;81.90
43225;DHT22;28834;48.720;9.208;2022-07-06T12:34:14;23.90;81.70
43225;DHT22;28834;48.720;9.208;2022-07-06T12:36:56;23.70;81.30
43225;DHT22;28834;48.720;9.208;2022-07-06T12:39:27;23.50;85.80
43225;DHT22;28834;48.720;9.208;2022-07-06T12:42:03;23.30;84.00
43225;DHT22;28834;48.720;9.208;2022-07-06T12:44:30;23.20;82.60
43225;DHT22;28834;48.720;9.208;2022-07-06T12:47:07;23.30;82.70
43225;DHT22;28834;48.720;9.208;2022-07-06T12:49:34;23.60;83.60
43225;DHT22;28834;48.720;9.208;2022-07-06T12:52:01;23.50;83.80
43225;DHT22;28834;48.720;9.208;2022-07-06T12:54:30;23.30;85.20
43225;DHT22;28834;48.720;9.208;2022-07-06T12:57:22;23.30;85.20
43225;DHT22;28834;48.720;9.208;2022-07-06T13:02:24;23.70;83.30
43225;DHT22;28834;48.720;9.208;2022-07-06T13:05:11;23.80;86.10
43225;DHT22;28834;48.720;9.208;2022-07-06T13:07:39;23.80;86.60
43225;DHT22;28834;48.720;9.208;2022-07-06T13:10:06;23.80;81.10
43225;DHT22;28834;48.720;9.208;2022-07-06T13:12:32;23.40;83.50
43225;DHT22;28834;48.720;9.208;2022-07-06T13:14:58;23.00;82.70
43225;DHT22;28834;48.720;9.208;2022-07-06T13:17:23;22.70;82.60
43225;DHT22;28834;48.720;9.208;2022-07-06T13:19:49;22.50;83.80
43225;DHT22;28834;48.720;9.208;2022-07-06T13:22:15;22.60;83.00
43225;DHT22;28834;48.720;9.208;2022-07-06T13:24:41;22.80;86.80
43225;DHT22;28834;48.720;9.208;2022-07-06T13:27:07;22.70;85.30
43225;DHT22;28834;48.720;9.208;2022-07-06T13:29:33;22.50;84.90
43225;DHT22;28834;48.720;9.208;2022-07-06T13:31:59;22.30;86.00
43225;DHT22;28834;48.720;9.208;2022-07-06T13:34:24;22.30;85.10
43225;DHT22;28834;48.720;9.208;2022-07-06T13:36:51;22.70;85.20
43225;DHT22;28834;48.720;9.208;2022-07-06T13:39:17;23.20;84.70
43225;DHT22;28834;48.720;9.208;2022-07-06T13:41:43;23.60;84.60
43225;DHT22;28834;48.720;9.208;2022-07-06T13:44:09;24.00;81.00
43225;DHT22;28834;48.720;9.208;2022-07-06T13:46:37;24.30;83.80
43225;DHT22;28834;48.720;9.208;2022-07-06T13:49:03;24.60;80.80
43225;DHT22;28834;48.720;9.208;2022-07-06T13:51:29;24.90;80.10
43225;DHT22;28834;48.720;9.208;2022-07-06T13:54:01;25.10;77.30
43225;DHT22;28834;48.720;9.208;2022-07-06T13:56:27;25.10;77.40
43225;DHT22;28834;48.720;9.208;2022-07-06T13:58:53;25.30;79.70
43225;DHT22;28834;48.720;9.208;2022-07-06T14:01:19;25.40;77.60
43225;DHT22;28834;48.720;9.208;2022-07-06T14:03:44;25.50;76.40
43225;DHT22;28834;48.720;9.208;2022-07-06T14:06:10;25.60;75.40
43225;DHT22;28834;48.720;9.208;2022-07-06T14:08:37;25.60;76.30
43225;DHT22;28834;48.720;9.208;2022-07-06T14:11:04;25.70;75.00
43225;DHT22;28834;48.720;9.208;2022-07-06T14:13:30;26.00;73.50
43225;DHT22;28834;48.720;9.208;2022-07-06T14:15:55;26.20;79.00
43225;DHT22;28834;48.720;9.208;2022-07-06T14:18:21;26.20;74.80
43225;DHT22;28834;48.720;9.208;2022-07-06T14:20:48;26.30;73.60
43225;DHT22;28834;48.720;9.208;2022-07-06T14:23:15;26.20;71.10
43225;DHT22;28834;48.720;9.208;2022-07-06T14:25:41;26.00;74.80
43225;DHT22;28834;48.720;9.208;2022-07-06T14:28:08;25.80;71.40
43225;DHT22;28834;48.720;9.208;2022-07-06T14:30:34;26.00;72.30
43225;DHT22;28834;48.720;9.208;2022-07-06T14:33:03;26.10;69.90
43225;DHT22;28834;48.720;9.208;2022-07-06T14:35:33;26.20;69.40
43225;DHT22;28834;48.720;9.208;2022-07-06T14:37:59;26.40;72.80
43225;DHT22;28834;48.720;9.208;2022-07-06T14:40:24;26.40;73.50
43225;DHT22;28834;48.720;9.208;2022-07-06T14:42:50;26.50;72.60
43225;DHT22;28834;48.720;9.208;2022-07-06T14:45:15;26.50;70.20
43225;DHT22;28834;48.720;9.208;2022-07-06T14:47:41;26.40;70.70
43225;DHT22;28834;48.720;9.208;2022-07-06T14:50:07;26.30;67.10
43225;DHT22;28834;48.720;9.208;2022-07-06T14:52:32;26.50;70.50
43225;DHT22;28834;48.720;9.208;2022-07-06T14:54:58;26.20;67.60
43225;DHT22;28834;48.720;9.208;2022-07-06T14:57:25;26.10;70.70
43225;DHT22;28834;48.720;9.208;2022-07-06T14:59:51;26.00;69.40
43225;DHT22;28834;48.720;9.208;2022-07-06T15:02:16;25.90;70.50
43225;DHT22;28834;48.720;9.208;2022-07-06T15:04:42;25.90;68.70
43225;DHT22;28834;48.720;9.208;2022-07-06T15:07:07;25.90;72.40
43225;DHT22;28834;48.720;9.208;2022-07-06T15:09:33;25.90;72.00
43225;DHT22;28834;48.720;9.208;2022-07-06T15:11:59;25.80;67.70
43225;DHT22;28834;48.720;9.208;2022-07-06T15:14:24;25.60;69.50
43225;DHT22;28834;48.720;9.208;2022-07-06T15:16:51;25.30;70.20
43225;DHT22;28834;48.720;9.208;2022-07-06T15:19:17;25.10;71.40
43225;DHT22;28834;48.720;9.208;2022-07-06T15:21:43;25.00;73.10
43225;DHT22;28834;48.720;9.208;2022-07-06T15:24:09;24.80;72.40
43225;DHT22;28834;48.720;9.208;2022-07-06T15:26:34;24.50;75.10
43225;DHT22;28834;48.720;9.208;2022-07-06T15:29:00;24.20;73.50
43225;DHT22;28834;48.720;9.208;2022-07-06T15:31:25;23.90;71.90
43225;DHT22;28834;48.720;9.208;2022-07-06T15:33:51;23.70;73.90
43225;DHT22;28834;48.720;9.208;2022-07-06T15:36:17;23.50;74.20
43225;DHT22;28834;48.720;9.208;2022-07-06T15:38:42;23.30;74.40
43225;DHT22;28834;48.720;9.208;2022-07-06T15:41:08;23.00;76.10
43225;DHT22;28834;48.720;9.208;2022-07-06T15:43:33;22.90;76.50
43225;DHT22;28834;48.720;9.208;2022-07-06T15:46:01;22.80;76.80
43225;DHT22;28834;48.720;9.208;2022-07-06T15:48:28;22.70;77.70